createdAt,value
2023-05-18T00:00:47.807Z,95642.22
2023-05-18T00:03:16.026Z,95637.00
2023-05-18T00:05:43.809Z,95636.84
2023-05-18T00:08:11.500Z,95635.03
2023-05-18T00:10:39.299Z,95634.88
2023-05-18T00:13:08.756Z,95632.00
2023-05-18T00:15:36.384Z,95624.94
2023-05-18T00:18:04.222Z,95630.16
2023-05-18T00:20:31.992Z,95632.50
2023-05-18T00:23:00.634Z,95626.28
2023-05-18T00:25:28.670Z,95627.94
2023-05-18T00:27:56.490Z,95620.91
2023-05-18T00:30:25.697Z,95626.16
2023-05-18T00:32:53.367Z,95619.13
2023-05-18T00:35:21.428Z,95614.84
2023-05-18T00:37:49.093Z,95617.31
2023-05-18T00:40:16.950Z,95618.16
2023-05-18T00:42:44.623Z,95612.91
2023-05-18T00:45:12.720Z,95609.34
2023-05-18T00:47:41.724Z,95612.75
2023-05-18T00:50:09.493Z,95613.75
2023-05-18T00:52:37.286Z,95608.66
2023-05-18T00:55:05.134Z,95609.63
2023-05-18T00:57:33.587Z,95614.84
2023-05-18T01:00:01.518Z,95616.63
2023-05-18T01:02:30.460Z,95611.41
2023-05-18T01:05:00.612Z,95607.97
2023-05-18T01:07:28.335Z,95613.19
2023-05-18T01:09:56.472Z,95607.97
2023-05-18T01:12:30.675Z,95605.22
2023-05-18T01:15:04.814Z,95606.03
2023-05-18T01:17:40.227Z,95606.03
2023-05-18T01:20:18.662Z,95605.06
2023-05-18T01:23:01.588Z,95600.81
2023-05-18T01:25:36.579Z,95601.75
2023-05-18T01:28:16.357Z,95594.88
2023-05-18T01:30:44.642Z,95603.56
2023-05-18T01:33:14.062Z,95600.94
2023-05-18T01:35:47.919Z,95600.81
2023-05-18T01:38:17.358Z,95601.59
2023-05-18T01:40:53.857Z,95597.19
2023-05-18T01:43:26.832Z,95594.41
2023-05-18T01:45:59.092Z,95596.09
2023-05-18T01:48:27.382Z,95593.31
2023-05-18T01:50:58.488Z,95590.69
2023-05-18T01:53:29.071Z,95593.19
2023-05-18T01:55:57.792Z,95592.34
2023-05-18T01:58:28.957Z,95587.94
2023-05-18T02:00:57.162Z,95580.88
2023-05-18T02:03:25.091Z,95584.34
2023-05-18T02:05:52.772Z,95583.50
2023-05-18T02:08:20.669Z,95575.66
2023-05-18T02:10:48.341Z,95576.31
2023-05-18T02:13:16.012Z,95572.91
2023-05-18T02:15:45.150Z,95573.69
2023-05-18T02:18:12.862Z,95565.84
2023-05-18T02:20:40.511Z,95568.47
2023-05-18T02:23:08.188Z,95574.53
2023-05-18T02:25:35.844Z,95572.91
2023-05-18T02:28:03.474Z,95570.28
2023-05-18T02:30:33.253Z,95569.47
2023-05-18T02:33:02.459Z,95573.88
2023-05-18T02:35:30.893Z,95572.06
2023-05-18T02:37:58.846Z,95564.38
2023-05-18T02:40:26.486Z,95568.78
2023-05-18T02:42:54.125Z,95566.16
2023-05-18T02:45:21.873Z,95564.38
2023-05-18T02:47:49.543Z,95567.00
2023-05-18T02:50:18.630Z,95572.22
2023-05-18T02:52:49.166Z,95564.38
2023-05-18T02:55:17.265Z,95563.38
2023-05-18T02:57:46.964Z,95560.78
2023-05-18T03:00:16.700Z,95559.94
2023-05-18T03:02:48.197Z,95559.94
2023-05-18T03:05:23.753Z,95555.69
2023-05-18T03:07:52.213Z,95558.31
2023-05-18T03:10:20.299Z,95554.03
2023-05-18T03:12:48.061Z,95559.13
2023-05-18T03:15:16.123Z,95552.25
2023-05-18T03:17:44.169Z,95555.69
2023-05-18T03:20:14.447Z,95552.91
2023-05-18T03:22:43.437Z,95551.97
2023-05-18T03:25:11.099Z,95550.97
2023-05-18T03:27:39.189Z,95549.19
2023-05-18T03:30:08.260Z,95546.56
2023-05-18T03:32:37.067Z,95553.47
2023-05-18T03:35:05.696Z,95556.06
2023-05-18T03:37:33.365Z,95557.72
2023-05-18T03:40:11.326Z,95563.78
2023-05-18T03:42:39.045Z,95561.16
2023-05-18T03:45:08.018Z,95562.94
2023-05-18T03:47:36.436Z,95566.38
2023-05-18T03:50:04.652Z,95570.78
2023-05-18T03:52:34.134Z,95561.16
2023-05-18T03:55:03.146Z,95562.94
2023-05-18T03:57:31.752Z,95569.00
2023-05-18T03:59:59.761Z,95569.84
2023-05-18T04:02:27.831Z,95574.25
2023-05-18T04:04:57.935Z,95573.41
2023-05-18T04:07:25.618Z,95569.16
2023-05-18T04:09:54.504Z,95562.13
2023-05-18T04:12:23.781Z,95569.00
2023-05-18T04:14:51.520Z,95561.97
2023-05-18T04:17:22.228Z,95568.03
2023-05-18T04:19:51.233Z,95569.84
2023-05-18T04:22:19.198Z,95575.88
2023-05-18T04:24:47.667Z,95571.47
2023-05-18T04:27:15.733Z,95572.28
2023-05-18T04:29:44.757Z,95568.84
2023-05-18T04:32:12.462Z,95576.72
2023-05-18T04:34:40.824Z,95572.28
2023-05-18T04:37:10.494Z,95570.50
2023-05-18T04:39:42.278Z,95571.47
2023-05-18T04:42:10.622Z,95579.16
2023-05-18T04:44:39.097Z,95582.78
2023-05-18T04:47:08.853Z,95581.78
2023-05-18T04:49:36.582Z,95584.28
2023-05-18T04:52:06.580Z,95592.13
2023-05-18T04:54:34.334Z,95587.72
2023-05-18T04:57:02.172Z,95590.19
2023-05-18T04:59:29.840Z,95584.81
2023-05-18T05:01:57.471Z,95587.44
2023-05-18T05:04:26.457Z,95586.47
2023-05-18T05:06:54.086Z,95592.38
2023-05-18T05:09:21.756Z,95587.16
2023-05-18T05:11:49.398Z,95591.41
2023-05-18T05:14:17.034Z,95589.59
2023-05-18T05:16:44.729Z,95586.16
2023-05-18T05:19:12.415Z,95592.22
2023-05-18T05:21:41.606Z,95591.28
2023-05-18T05:24:09.303Z,95586.03
2023-05-18T05:26:37.177Z,95582.59
2023-05-18T05:29:04.844Z,95581.75
2023-05-18T05:31:32.509Z,95591.28
2023-05-18T05:34:00.196Z,95585.19
2023-05-18T05:36:27.827Z,95581.75
2023-05-18T05:38:56.843Z,95586.03
2023-05-18T05:41:24.504Z,95583.41
2023-05-18T05:43:52.122Z,95589.19
2023-05-18T05:46:19.876Z,95589.06
2023-05-18T05:48:47.556Z,95591.03
2023-05-18T05:51:15.182Z,95590.03
2023-05-18T05:53:43.518Z,95591.66
2023-05-18T05:56:12.579Z,95599.84
2023-05-18T05:58:40.262Z,95593.38
2023-05-18T06:01:08.532Z,95599.28
2023-05-18T06:03:37.224Z,95601.88
2023-05-18T06:06:05.304Z,95608.78
2023-05-18T06:08:32.960Z,95602.19
2023-05-18T06:11:00.550Z,95609.47
2023-05-18T06:13:29.333Z,95612.34
2023-05-18T06:15:56.855Z,95614.16
2023-05-18T06:18:24.372Z,95604.13
2023-05-18T06:20:52.206Z,95608.91
2023-05-18T06:23:22.673Z,95607.84
2023-05-18T06:25:50.197Z,95618.56
2023-05-18T06:28:17.945Z,95612.63
2023-05-18T06:30:46.817Z,95620.19
2023-05-18T06:33:14.667Z,95618.00
2023-05-18T06:35:42.244Z,95604.41
2023-05-18T06:38:09.802Z,95609.63
2023-05-18T06:40:37.286Z,95608.53
2023-05-18T06:43:04.765Z,95617.84
2023-05-18T06:45:35.238Z,95608.78
2023-05-18T06:48:06.286Z,95607.28
2023-05-18T06:50:33.834Z,95610.56
2023-05-18T06:53:02.471Z,95607.53
2023-05-18T06:55:30.117Z,95611.94
2023-05-18T06:57:58.355Z,95611.25
2023-05-18T07:00:25.896Z,95615.78
2023-05-18T07:02:53.463Z,95621.03
2023-05-18T07:05:23.296Z,95623.38
2023-05-18T07:07:50.822Z,95623.63
2023-05-18T07:10:18.440Z,95625.81
2023-05-18T07:12:45.967Z,95629.81
2023-05-18T07:15:13.436Z,95623.88
2023-05-18T07:17:40.954Z,95615.31
2023-05-18T07:20:09.105Z,95617.63
2023-05-18T07:22:38.070Z,95625.97
2023-05-18T07:25:05.924Z,95619.81
2023-05-18T07:27:34.349Z,95617.13
2023-05-18T07:30:01.988Z,95618.22
2023-05-18T07:32:29.514Z,95614.22
2023-05-18T07:34:57.023Z,95622.44
2023-05-18T07:37:24.764Z,95614.16
2023-05-18T07:39:53.772Z,95614.69
2023-05-18T07:42:21.372Z,95623.06
2023-05-18T07:44:49.077Z,95627.19
2023-05-18T07:47:16.768Z,95601.69
2023-05-18T07:49:44.480Z,95605.00
2023-05-18T07:52:12.510Z,95605.66
2023-05-18T07:54:40.298Z,95614.19
2023-05-18T07:57:09.616Z,95610.63
2023-05-18T07:59:37.281Z,95599.16
2023-05-18T08:02:05.451Z,95602.34
2023-05-18T08:04:33.297Z,95605.78
2023-05-18T08:07:02.074Z,95596.00
2023-05-18T08:09:29.729Z,95594.84
2023-05-18T08:11:58.395Z,95592.22
2023-05-18T08:14:27.504Z,95603.41
2023-05-18T08:16:55.188Z,95603.25
2023-05-18T08:19:22.970Z,95606.69
2023-05-18T08:21:50.663Z,95609.16
2023-05-18T08:24:18.296Z,95598.53
2023-05-18T08:26:45.964Z,95601.16
2023-05-18T08:29:13.634Z,95596.75
2023-05-18T08:31:42.675Z,95606.38
2023-05-18T08:34:10.358Z,95596.75
2023-05-18T08:36:38.425Z,95600.19
2023-05-18T08:39:06.263Z,95602.81
2023-05-18T08:41:39.782Z,95599.19
2023-05-18T08:44:12.769Z,95595.78
2023-05-18T08:46:43.630Z,95590.53
2023-05-18T08:49:11.661Z,95587.94
2023-05-18T08:51:41.388Z,95601.03
2023-05-18T08:54:10.262Z,95593.16
2023-05-18T08:56:39.692Z,95600.19
2023-05-18T08:59:09.955Z,95591.50
2023-05-18T09:01:38.328Z,95593.97
2023-05-18T09:04:08.490Z,95599.19
2023-05-18T09:06:36.747Z,95598.41
2023-05-18T09:09:05.424Z,95593.97
2023-05-18T09:11:34.324Z,95605.25
2023-05-18T09:14:02.130Z,95599.19
2023-05-18T09:16:30.654Z,95593.00
2023-05-18T09:18:58.515Z,95596.44
2023-05-18T09:21:27.506Z,95605.09
2023-05-18T09:23:55.628Z,95602.50
2023-05-18T09:26:23.426Z,95601.53
2023-05-18T09:28:54.201Z,95601.53
2023-05-18T09:31:24.646Z,95604.16
2023-05-18T09:33:53.378Z,95594.34
2023-05-18T09:36:29.203Z,95603.88
2023-05-18T09:38:58.482Z,95600.25
2023-05-18T09:41:28.325Z,95609.78
2023-05-18T09:43:56.047Z,95596.69
2023-05-18T09:46:23.707Z,95608.78
2023-05-18T09:48:52.645Z,95615.81
2023-05-18T09:51:21.860Z,95608.66
2023-05-18T09:53:55.352Z,95606.03
2023-05-18T09:56:24.077Z,95611.28
2023-05-18T09:58:51.783Z,95618.97
2023-05-18T10:01:19.876Z,95611.94
2023-05-18T10:03:49.663Z,95615.53
2023-05-18T10:06:19.981Z,95606.84
2023-05-18T10:08:47.860Z,95607.66
2023-05-18T10:11:18.646Z,95605.06
2023-05-18T10:13:46.895Z,95614.69
2023-05-18T10:16:16.581Z,95614.69
2023-05-18T10:18:44.815Z,95609.63
2023-05-18T10:21:14.413Z,95611.28
2023-05-18T10:23:42.222Z,95610.44
2023-05-18T10:26:10.433Z,95618.31
2023-05-18T10:28:43.985Z,95607.84
2023-05-18T10:31:12.036Z,95604.38
2023-05-18T10:33:39.832Z,95605.22
2023-05-18T10:36:10.027Z,95612.22
2023-05-18T10:38:39.689Z,95602.59
2023-05-18T10:41:08.730Z,95598.31
2023-05-18T10:43:37.398Z,95597.34
2023-05-18T10:46:08.480Z,95609.63
2023-05-18T10:48:39.768Z,95601.75
2023-05-18T10:51:08.953Z,95604.38
2023-05-18T10:53:37.529Z,95612.22
2023-05-18T10:56:05.427Z,95606.16
2023-05-18T10:58:34.302Z,95604.22
2023-05-18T11:01:06.277Z,95604.38
2023-05-18T11:03:35.466Z,95605.22
2023-05-18T11:06:08.730Z,95611.28
2023-05-18T11:08:44.445Z,95607.66
2023-05-18T11:11:12.143Z,95601.59
2023-05-18T11:13:45.349Z,95608.34
2023-05-18T11:16:13.279Z,95618.81
2023-05-18T11:18:44.575Z,95605.59
2023-05-18T11:21:23.332Z,95604.59
2023-05-18T11:24:17.060Z,95611.50
2023-05-18T11:26:46.779Z,95614.13
2023-05-18T11:29:19.409Z,95607.91
2023-05-18T11:31:48.144Z,95620.03
2023-05-18T11:34:42.213Z,95600.88
2023-05-18T11:37:10.857Z,95602.50
2023-05-18T11:39:47.920Z,95603.34
2023-05-18T11:42:24.126Z,95604.31
2023-05-18T11:44:55.786Z,95600.88
2023-05-18T11:47:30.593Z,95591.22
2023-05-18T11:50:00.435Z,95599.88
2023-05-18T11:52:28.118Z,95604.31
2023-05-18T11:54:57.008Z,95606.94
2023-05-18T11:57:26.629Z,95605.13
2023-05-18T11:59:57.055Z,95612.19
2023-05-18T12:02:26.671Z,95603.34
2023-05-18T12:04:56.414Z,95607.75
2023-05-18T12:07:26.143Z,95601.56
2023-05-18T12:09:53.837Z,95599.88
2023-05-18T12:12:23.350Z,95598.94
2023-05-18T12:14:57.934Z,95597.16
2023-05-18T12:17:30.772Z,95601.38
2023-05-18T12:19:58.448Z,95599.59
2023-05-18T12:22:27.920Z,95588.28
2023-05-18T12:24:55.575Z,95590.78
2023-05-18T12:27:26.386Z,95592.56
2023-05-18T12:29:55.774Z,95590.78
2023-05-18T12:32:23.485Z,95602.91
2023-05-18T12:34:52.059Z,95595.03
2023-05-18T12:37:23.892Z,95605.50
2023-05-18T12:39:54.963Z,95610.75
2023-05-18T12:42:22.796Z,95609.78
2023-05-18T12:44:51.700Z,95596.69
2023-05-18T12:47:19.373Z,95603.72
2023-05-18T12:49:50.394Z,95594.88
2023-05-18T12:52:18.150Z,95581.78
2023-05-18T12:54:55.227Z,95585.22
2023-05-18T12:57:27.303Z,95584.41
2023-05-18T12:59:55.563Z,95586.06
2023-05-18T13:02:32.163Z,95586.91
2023-05-18T13:05:04.991Z,95581.66
2023-05-18T13:07:34.383Z,95581.66
2023-05-18T13:10:02.845Z,95583.28
2023-05-18T13:12:40.233Z,95582.47
2023-05-18T13:15:12.636Z,95585.09
2023-05-18T13:17:40.521Z,95576.41
2023-05-18T13:20:15.437Z,95571.84
2023-05-18T13:22:44.456Z,95564.94
2023-05-18T13:25:12.419Z,95572.81
2023-05-18T13:27:41.515Z,95561.53
2023-05-18T13:30:10.750Z,95565.78
2023-05-18T13:32:38.422Z,95564.94
2023-05-18T13:35:07.060Z,95566.78
2023-05-18T13:37:34.760Z,95561.53
2023-05-18T13:40:02.489Z,95558.09
2023-05-18T13:42:30.126Z,95556.31
2023-05-18T13:44:59.152Z,95552.69
2023-05-18T13:47:26.895Z,95553.50
2023-05-18T13:49:54.623Z,95549.25
2023-05-18T13:52:22.280Z,95553.50
2023-05-18T13:54:49.901Z,95546.63
2023-05-18T13:57:17.542Z,95549.25
2023-05-18T13:59:46.010Z,95543.03
2023-05-18T14:02:15.101Z,95550.91
2023-05-18T14:04:42.721Z,95540.41
2023-05-18T14:07:11.072Z,95545.66
2023-05-18T14:09:38.733Z,95545.66
2023-05-18T14:12:07.301Z,95543.03
2023-05-18T14:14:34.980Z,95540.41
2023-05-18T14:17:02.956Z,95543.03
2023-05-18T14:19:32.007Z,95544.69
2023-05-18T14:21:59.672Z,95533.41
2023-05-18T14:24:27.348Z,95539.47
2023-05-18T14:26:55.031Z,95535.88
2023-05-18T14:29:22.730Z,95537.69
2023-05-18T14:31:50.384Z,95529.81
2023-05-18T14:34:18.048Z,95536.72
2023-05-18T14:36:47.168Z,95526.25
2023-05-18T14:39:14.802Z,95539.19
2023-05-18T14:41:42.466Z,95532.31
2023-05-18T14:44:10.127Z,95531.31
2023-05-18T14:46:37.934Z,95537.38
2023-05-18T14:49:05.987Z,95532.16
2023-05-18T14:51:33.747Z,95526.06
2023-05-18T14:54:02.748Z,95533.78
2023-05-18T14:56:30.510Z,95537.38
2023-05-18T14:58:58.165Z,95539.59
2023-05-18T15:01:26.163Z,95540.94
2023-05-18T15:03:53.977Z,95539.06
2023-05-18T15:06:21.678Z,95537.91
2023-05-18T15:08:49.421Z,95544.03
2023-05-18T15:11:20.136Z,95545.41
2023-05-18T15:13:47.967Z,95540.06
2023-05-18T15:16:16.159Z,95537.56
2023-05-18T15:18:43.961Z,95545.47
2023-05-18T15:21:11.718Z,95535.81
2023-05-18T15:23:39.494Z,95536.81
2023-05-18T15:26:09.153Z,95536.25
2023-05-18T15:28:38.402Z,95539.03
2023-05-18T15:31:06.298Z,95538.50
2023-05-18T15:33:35.972Z,95550.75
2023-05-18T15:36:03.636Z,95545.59
2023-05-18T15:38:31.298Z,95548.13
2023-05-18T15:40:58.969Z,95543.03
2023-05-18T15:43:27.612Z,95545.25
2023-05-18T15:45:56.708Z,95547.28
2023-05-18T15:48:24.426Z,95536.84
2023-05-18T15:50:52.072Z,95548.97
2023-05-18T15:53:19.727Z,95544.69
2023-05-18T15:55:49.179Z,95537.41
2023-05-18T15:58:16.888Z,95533.59
2023-05-18T16:00:44.620Z,95534.97
2023-05-18T16:03:14.030Z,95537.19
2023-05-18T16:05:41.794Z,95544.00
2023-05-18T16:08:09.575Z,95545.69
2023-05-18T16:10:37.210Z,95534.41
2023-05-18T16:13:05.996Z,95532.50
2023-05-18T16:15:35.062Z,95540.72
2023-05-18T16:18:03.146Z,95534.81
2023-05-18T16:20:32.581Z,95539.09
2023-05-18T16:23:00.836Z,95542.81
2023-05-18T16:25:29.082Z,95545.56
2023-05-18T16:27:56.784Z,95541.19
2023-05-18T16:30:24.544Z,95544.50
2023-05-18T16:32:52.237Z,95543.81
2023-05-18T16:35:20.186Z,95545.88
2023-05-18T16:37:49.233Z,95548.34
2023-05-18T16:40:16.873Z,95546.28
2023-05-18T16:42:47.189Z,95545.75
2023-05-18T16:45:14.958Z,95544.91
2023-05-18T16:47:42.636Z,95547.53
2023-05-18T16:50:11.297Z,95556.19
2023-05-18T16:52:38.979Z,95558.97
2023-05-18T16:55:08.638Z,95563.06
2023-05-18T16:57:36.793Z,95564.88
2023-05-18T17:00:09.329Z,95568.19
2023-05-18T17:02:38.366Z,95566.91
2023-05-18T17:05:08.361Z,95571.75
2023-05-18T17:07:36.831Z,95575.44
2023-05-18T17:10:05.470Z,95576.72
2023-05-18T17:12:36.354Z,95578.63
2023-05-18T17:15:04.294Z,95573.16
2023-05-18T17:17:32.020Z,95568.59
2023-05-18T17:19:59.725Z,95572.72
2023-05-18T17:22:27.450Z,95574.81
2023-05-18T17:24:55.126Z,95570.81
2023-05-18T17:27:22.754Z,95566.00
2023-05-18T17:29:51.785Z,95570.38
2023-05-18T17:32:19.539Z,95566.41
2023-05-18T17:34:47.221Z,95564.63
2023-05-18T17:37:14.844Z,95562.59
2023-05-18T17:39:42.512Z,95566.31
2023-05-18T17:42:10.118Z,95566.56
2023-05-18T17:44:37.803Z,95570.69
2023-05-18T17:47:07.249Z,95565.22
2023-05-18T17:49:34.996Z,95562.59
2023-05-18T17:52:03.670Z,95568.25
2023-05-18T17:54:31.484Z,95568.25
2023-05-18T17:56:59.149Z,95577.56
2023-05-18T17:59:26.837Z,95576.06
2023-05-18T18:01:54.499Z,95584.31
2023-05-18T18:04:23.601Z,95574.69
2023-05-18T18:06:54.225Z,95584.16
2023-05-18T18:09:22.188Z,95586.50
2023-05-18T18:11:49.879Z,95578.53
2023-05-18T18:14:17.457Z,95566.31
2023-05-18T18:16:45.258Z,95575.66
2023-05-18T18:19:13.304Z,95581.72
2023-05-18T18:21:42.332Z,95580.75
2023-05-18T18:24:09.894Z,95582.94
2023-05-18T18:26:40.310Z,95580.88
2023-05-18T18:29:07.904Z,95570.88
2023-05-18T18:31:35.657Z,95579.22
2023-05-18T18:34:03.916Z,95580.34
2023-05-18T18:36:31.521Z,95576.09
2023-05-18T18:39:00.341Z,95573.31
2023-05-18T18:41:27.853Z,95576.22
2023-05-18T18:43:57.104Z,95578.97
2023-05-18T18:46:24.675Z,95572.53
2023-05-18T18:48:52.223Z,95577.44
2023-05-18T18:51:19.721Z,95579.53
2023-05-18T18:53:47.224Z,95580.34
2023-05-18T18:56:16.072Z,95582.66
2023-05-18T18:58:43.594Z,95590.66
2023-05-18T19:01:11.154Z,95585.69
2023-05-18T19:03:38.633Z,95588.19
2023-05-18T19:06:06.168Z,95592.59
2023-05-18T19:08:33.641Z,95599.44
2023-05-18T19:11:01.106Z,95602.75
2023-05-18T19:13:29.948Z,95605.47
2023-05-18T19:15:58.100Z,95605.63
2023-05-18T19:18:25.766Z,95603.84
2023-05-18T19:20:53.302Z,95611.38
2023-05-18T19:23:20.786Z,95614.84
2023-05-18T19:25:48.314Z,95607.56
2023-05-18T19:28:15.946Z,95616.19
2023-05-18T19:30:44.775Z,95619.91
2023-05-18T19:33:12.297Z,95618.81
2023-05-18T19:35:39.784Z,95618.66
2023-05-18T19:38:07.293Z,95627.47
2023-05-18T19:40:34.794Z,95618.34
2023-05-18T19:43:02.299Z,95634.69
2023-05-18T19:45:30.146Z,95634.97
2023-05-18T19:47:59.229Z,95633.41
2023-05-18T19:50:26.770Z,95629.88
2023-05-18T19:52:54.219Z,95639.22
2023-05-18T19:55:21.956Z,95636.72
2023-05-18T19:57:49.457Z,95628.38
2023-05-18T20:00:17.333Z,95635.09
2023-05-18T20:02:44.882Z,95634.13
2023-05-18T20:05:18.649Z,95635.22
2023-05-18T20:07:46.407Z,95627.25
2023-05-18T20:10:13.892Z,95629.59
2023-05-18T20:12:41.397Z,95631.13
2023-05-18T20:15:09.685Z,95632.06
2023-05-18T20:17:37.578Z,95639.09
2023-05-18T20:20:06.188Z,95638.81
2023-05-18T20:22:34.799Z,95638.09
2023-05-18T20:25:05.377Z,95635.59
2023-05-18T20:27:32.929Z,95638.78
2023-05-18T20:30:00.621Z,95641.94
2023-05-18T20:32:28.880Z,95636.72
2023-05-18T20:34:56.445Z,95646.56
2023-05-18T20:37:25.229Z,95637.91
2023-05-18T20:39:52.751Z,95644.91
2023-05-18T20:42:22.735Z,95636.25
2023-05-18T20:44:52.076Z,95630.19
2023-05-18T20:47:20.371Z,95640.38
2023-05-18T20:49:48.554Z,95634.47
2023-05-18T20:52:16.608Z,95634.75
2023-05-18T20:54:44.518Z,95634.22
2023-05-18T20:57:12.092Z,95627.59
2023-05-18T20:59:41.051Z,95641.47
2023-05-18T21:02:08.610Z,95630.63
2023-05-18T21:04:36.145Z,95631.84
2023-05-18T21:07:05.489Z,95633.53
2023-05-18T21:09:34.130Z,95624.47
2023-05-18T21:12:02.650Z,95632.13
2023-05-18T21:14:30.132Z,95633.03
2023-05-18T21:16:58.948Z,95634.56
2023-05-18T21:19:26.562Z,95642.53
2023-05-18T21:21:54.030Z,95637.66
2023-05-18T21:24:21.530Z,95629.09
2023-05-18T21:26:49.068Z,95635.16
2023-05-18T21:29:16.544Z,95626.09
2023-05-18T21:31:44.154Z,95622.47
2023-05-18T21:34:13.724Z,95617.66
2023-05-18T21:36:41.628Z,95627.81
2023-05-18T21:39:09.587Z,95620.75
2023-05-18T21:41:40.263Z,95619.13
2023-05-18T21:44:07.840Z,95619.50
2023-05-18T21:46:35.423Z,95611.78
2023-05-18T21:49:03.400Z,95606.13
2023-05-18T21:51:32.358Z,95605.81
2023-05-18T21:53:59.982Z,95608.97
2023-05-18T21:56:27.889Z,95600.81
2023-05-18T21:58:56.111Z,95604.94
2023-05-18T22:01:24.017Z,95609.91
2023-05-18T22:03:51.732Z,95602.88
2023-05-18T22:06:19.258Z,95596.66
2023-05-18T22:08:48.237Z,95595.56
2023-05-18T22:11:16.331Z,95593.63
2023-05-18T22:13:44.016Z,95597.75
2023-05-18T22:16:11.626Z,95594.13
2023-05-18T22:18:39.328Z,95586.16
2023-05-18T22:21:07.021Z,95581.72
2023-05-18T22:23:34.712Z,95584.22
2023-05-18T22:26:03.708Z,95588.47
2023-05-18T22:28:31.399Z,95596.19
2023-05-18T22:30:59.050Z,95583.09
2023-05-18T22:33:26.793Z,95583.91
2023-05-18T22:35:54.466Z,95584.75
2023-05-18T22:38:22.104Z,95585.41
2023-05-18T22:40:53.851Z,95581.16
2023-05-18T22:43:22.995Z,95582.78
2023-05-18T22:45:50.716Z,95584.47
2023-05-18T22:48:18.510Z,95581.84
2023-05-18T22:50:46.511Z,95578.38
2023-05-18T22:53:14.170Z,95582.66
2023-05-18T22:55:41.814Z,95586.91
2023-05-18T22:58:09.484Z,95591.19
2023-05-18T23:00:38.490Z,95585.13
2023-05-18T23:03:06.261Z,95583.47
2023-05-18T23:05:34.176Z,95575.63
2023-05-18T23:08:02.708Z,95572.88
2023-05-18T23:10:30.974Z,95574.66
2023-05-18T23:12:59.885Z,95571.06
2023-05-18T23:15:27.801Z,95569.44
2023-05-18T23:17:56.879Z,95571.06
2023-05-18T23:20:25.264Z,95574.50
2023-05-18T23:22:53.082Z,95568.44
2023-05-18T23:25:21.103Z,95566.66
2023-05-18T23:27:48.771Z,95570.09
2023-05-18T23:30:16.432Z,95565.03
2023-05-18T23:32:45.459Z,95564.88
2023-05-18T23:35:16.271Z,95570.94
2023-05-18T23:37:44.249Z,95568.44
2023-05-18T23:40:13.637Z,95568.31
2023-05-18T23:42:41.511Z,95565.69
2023-05-18T23:45:09.872Z,95564.72
2023-05-18T23:47:37.831Z,95561.97
2023-05-18T23:50:06.299Z,95560.31
2023-05-18T23:52:35.407Z,95554.13
2023-05-18T23:55:04.090Z,95559.19
2023-05-18T23:57:33.087Z,95550.50
